createdAt,value
2023-08-22T00:01:39.577Z,2.90
2023-08-22T00:04:06.822Z,3.47
2023-08-22T00:06:34.503Z,3.63
2023-08-22T00:09:05.011Z,3.90
2023-08-22T00:11:32.439Z,3.38
2023-08-22T00:14:00.197Z,3.33
2023-08-22T00:16:27.499Z,3.65
2023-08-22T00:18:54.900Z,3.45
2023-08-22T00:21:22.769Z,3.28
2023-08-22T00:23:50.263Z,3.60
2023-08-22T00:26:17.799Z,3.38
2023-08-22T00:28:45.117Z,3.38
2023-08-22T00:31:12.508Z,3.10
2023-08-22T00:33:39.861Z,3.08
2023-08-22T00:36:07.485Z,3.40
2023-08-22T00:38:34.867Z,3.63
2023-08-22T00:41:02.135Z,3.70
2023-08-22T00:43:29.414Z,3.40
2023-08-22T00:45:57.856Z,3.50
2023-08-22T00:48:25.244Z,3.50
2023-08-22T00:50:53.082Z,3.50
2023-08-22T00:53:20.728Z,3.47
2023-08-22T00:55:48.186Z,3.78
2023-08-22T00:58:15.665Z,3.40
2023-08-22T01:00:43.359Z,3.50
2023-08-22T01:03:11.700Z,3.67
2023-08-22T01:05:46.670Z,2.75
2023-08-22T01:08:20.834Z,2.95
2023-08-22T01:10:53.875Z,2.88
2023-08-22T01:13:29.399Z,3.40
2023-08-22T01:15:58.477Z,3.15
2023-08-22T01:18:26.760Z,3.00
2023-08-22T01:21:08.411Z,3.22
2023-08-22T01:23:35.700Z,3.00
2023-08-22T01:26:03.900Z,3.10
2023-08-22T01:28:58.214Z,3.03
2023-08-22T01:31:47.436Z,3.03
2023-08-22T01:34:23.350Z,3.45
2023-08-22T01:36:56.052Z,3.47
2023-08-22T01:39:26.641Z,3.50
2023-08-22T01:41:55.886Z,2.97
2023-08-22T01:44:23.450Z,3.17
2023-08-22T01:46:50.922Z,3.50
2023-08-22T01:49:18.344Z,3.05
2023-08-22T01:51:45.659Z,3.30
2023-08-22T01:54:13.147Z,3.53
2023-08-22T01:56:40.644Z,3.22
2023-08-22T01:59:08.011Z,2.60
2023-08-22T02:01:35.311Z,2.72
2023-08-22T02:04:05.257Z,2.30
2023-08-22T02:06:33.298Z,3.10
2023-08-22T02:09:00.522Z,3.30
2023-08-22T02:11:27.952Z,3.30
2023-08-22T02:13:56.415Z,3.47
2023-08-22T02:16:23.931Z,3.47
2023-08-22T02:18:51.226Z,3.10
2023-08-22T02:21:19.124Z,3.70
2023-08-22T02:23:46.330Z,4.18
2023-08-22T02:26:13.962Z,3.30
2023-08-22T02:28:41.367Z,3.20
2023-08-22T02:31:08.847Z,3.28
2023-08-22T02:33:36.215Z,3.00
2023-08-22T02:36:03.816Z,3.70
2023-08-22T02:38:32.547Z,3.67
2023-08-22T02:40:59.907Z,3.50
2023-08-22T02:43:27.392Z,3.45
2023-08-22T02:45:55.996Z,3.65
2023-08-22T02:48:23.426Z,3.47
2023-08-22T02:50:51.589Z,3.92
2023-08-22T02:53:19.073Z,3.92
2023-08-22T02:55:50.153Z,3.63
2023-08-22T02:58:17.596Z,3.70
2023-08-22T03:00:48.150Z,4.05
2023-08-22T03:03:16.297Z,3.72
2023-08-22T03:05:45.444Z,3.80
2023-08-22T03:08:13.434Z,3.75
2023-08-22T03:10:42.045Z,3.63
2023-08-22T03:13:09.332Z,3.67
2023-08-22T03:15:36.685Z,3.42
2023-08-22T03:18:04.270Z,3.55
2023-08-22T03:20:32.278Z,3.58
2023-08-22T03:23:02.212Z,3.47
2023-08-22T03:25:29.740Z,3.60
2023-08-22T03:27:57.128Z,3.78
2023-08-22T03:30:24.705Z,3.38
2023-08-22T03:32:52.193Z,3.05
2023-08-22T03:35:19.590Z,3.60
2023-08-22T03:37:47.064Z,3.58
2023-08-22T03:40:15.785Z,3.60
2023-08-22T03:42:46.538Z,3.60
2023-08-22T03:45:13.723Z,3.65
2023-08-22T03:47:41.075Z,3.70
2023-08-22T03:50:08.797Z,3.20
2023-08-22T03:52:36.648Z,3.28
2023-08-22T03:55:03.880Z,3.17
2023-08-22T03:57:31.000Z,2.92
2023-08-22T03:59:58.665Z,2.97
2023-08-22T04:02:27.587Z,2.92
2023-08-22T04:04:58.829Z,3.55
2023-08-22T04:07:26.539Z,3.15
2023-08-22T04:09:53.637Z,3.40
2023-08-22T04:12:20.841Z,2.63
2023-08-22T04:14:47.986Z,2.60
2023-08-22T04:17:15.086Z,3.08
2023-08-22T04:19:43.314Z,3.50
2023-08-22T04:22:10.395Z,3.20
2023-08-22T04:24:37.458Z,3.00
2023-08-22T04:27:05.121Z,3.10
2023-08-22T04:29:33.103Z,2.95
2023-08-22T04:32:04.896Z,3.17
2023-08-22T04:34:32.986Z,3.20
2023-08-22T04:37:02.275Z,3.80
2023-08-22T04:39:29.669Z,3.45
2023-08-22T04:42:09.361Z,2.92
2023-08-22T04:44:49.420Z,3.30
2023-08-22T04:47:16.612Z,2.70
2023-08-22T04:49:43.810Z,2.55
2023-08-22T04:52:10.924Z,2.78
2023-08-22T04:54:38.114Z,2.90
2023-08-22T04:57:05.613Z,3.63
2023-08-22T04:59:33.841Z,2.80
2023-08-22T05:02:01.060Z,2.88
2023-08-22T05:04:29.665Z,2.78
2023-08-22T05:06:56.936Z,3.25
2023-08-22T05:09:24.083Z,2.80
2023-08-22T05:11:51.813Z,3.17
2023-08-22T05:14:19.064Z,3.22
2023-08-22T05:16:46.363Z,3.15
2023-08-22T05:19:13.569Z,2.88
2023-08-22T05:21:41.555Z,3.15
2023-08-22T05:24:09.192Z,3.00
2023-08-22T05:26:36.356Z,2.78
2023-08-22T05:29:03.778Z,3.28
2023-08-22T05:31:31.068Z,3.70
2023-08-22T05:33:59.600Z,2.90
2023-08-22T05:36:26.802Z,3.17
2023-08-22T05:38:54.280Z,2.80
2023-08-22T05:41:22.244Z,3.00
2023-08-22T05:43:49.373Z,2.83
2023-08-22T05:46:16.601Z,3.30
2023-08-22T05:48:43.960Z,2.90
2023-08-22T05:51:12.255Z,2.50
2023-08-22T05:53:39.662Z,3.10
2023-08-22T05:56:07.724Z,2.58
2023-08-22T05:58:35.739Z,2.53
2023-08-22T06:01:12.028Z,2.80
2023-08-22T06:03:40.184Z,2.67
2023-08-22T06:06:08.430Z,2.60
2023-08-22T06:08:36.376Z,2.67
2023-08-22T06:11:03.634Z,3.00
2023-08-22T06:13:32.266Z,2.90
2023-08-22T06:15:59.841Z,2.78
2023-08-22T06:18:27.124Z,3.10
2023-08-22T06:20:59.192Z,2.63
2023-08-22T06:23:26.924Z,2.78
2023-08-22T06:25:54.174Z,3.10
2023-08-22T06:28:21.256Z,2.40
2023-08-22T06:30:48.575Z,2.83
2023-08-22T06:33:17.963Z,2.83
2023-08-22T06:35:48.633Z,2.53
2023-08-22T06:38:15.860Z,2.17
2023-08-22T06:40:43.523Z,2.10
2023-08-22T06:43:10.711Z,1.48
2023-08-22T06:45:38.938Z,1.63
2023-08-22T06:48:06.589Z,1.90
2023-08-22T06:50:33.928Z,1.50
2023-08-22T06:53:01.666Z,1.55
2023-08-22T06:55:28.746Z,1.45
2023-08-22T06:57:55.921Z,1.98
2023-08-22T07:00:23.121Z,1.17
2023-08-22T07:02:50.513Z,1.30
2023-08-22T07:05:17.936Z,1.05
2023-08-22T07:07:45.461Z,1.30
2023-08-22T07:10:16.328Z,1.30
2023-08-22T07:12:45.455Z,1.23
2023-08-22T07:15:13.021Z,1.48
2023-08-22T07:17:43.586Z,1.10
2023-08-22T07:20:12.844Z,1.30
2023-08-22T07:22:40.446Z,1.20
2023-08-22T07:25:08.329Z,1.02
2023-08-22T07:27:35.501Z,1.20
2023-08-22T07:30:02.817Z,1.63
2023-08-22T07:32:31.283Z,1.10
2023-08-22T07:34:59.567Z,0.98
2023-08-22T07:37:27.900Z,1.42
2023-08-22T07:39:54.978Z,1.30
2023-08-22T07:42:22.209Z,1.20
2023-08-22T07:44:49.317Z,0.90
2023-08-22T07:47:16.430Z,1.00
2023-08-22T07:49:43.605Z,0.85
2023-08-22T07:52:11.498Z,0.90
2023-08-22T07:54:38.648Z,1.02
2023-08-22T07:57:17.748Z,1.33
2023-08-22T07:59:45.929Z,0.98
2023-08-22T08:02:13.164Z,0.70
2023-08-22T08:04:40.341Z,0.85
2023-08-22T08:07:07.617Z,1.10
2023-08-22T08:09:36.102Z,1.00
2023-08-22T08:12:05.158Z,1.08
2023-08-22T08:14:32.388Z,0.85
2023-08-22T08:16:59.652Z,0.88
2023-08-22T08:19:27.863Z,0.80
2023-08-22T08:21:55.346Z,0.80
2023-08-22T08:24:22.607Z,1.13
2023-08-22T08:26:49.764Z,0.70
2023-08-22T08:29:19.170Z,0.90
2023-08-22T08:31:46.470Z,0.85
2023-08-22T08:34:13.924Z,0.90
2023-08-22T08:36:41.124Z,0.80
2023-08-22T08:39:08.411Z,0.80
2023-08-22T08:41:40.868Z,1.10
2023-08-22T08:44:09.249Z,1.00
2023-08-22T08:46:36.979Z,1.10
2023-08-22T08:49:05.911Z,1.00
2023-08-22T08:51:34.609Z,1.02
2023-08-22T08:54:01.810Z,0.80
2023-08-22T08:56:29.056Z,0.80
2023-08-22T08:58:56.153Z,0.70
2023-08-22T09:01:27.712Z,0.90
2023-08-22T09:03:55.164Z,0.70
2023-08-22T09:06:22.421Z,0.68
2023-08-22T09:09:10.207Z,0.90
2023-08-22T09:11:46.693Z,0.75
2023-08-22T09:14:22.670Z,0.85
2023-08-22T09:16:50.696Z,0.95
2023-08-22T09:19:18.043Z,0.80
2023-08-22T09:22:02.248Z,0.80
2023-08-22T09:24:29.445Z,1.00
2023-08-22T09:26:57.431Z,0.90
2023-08-22T09:29:29.125Z,0.73
2023-08-22T09:32:02.411Z,0.93
2023-08-22T09:34:30.319Z,1.00
2023-08-22T09:36:57.594Z,0.98
2023-08-22T09:39:25.990Z,0.85
2023-08-22T09:41:57.842Z,0.80
2023-08-22T09:44:30.304Z,0.80
2023-08-22T09:46:58.662Z,0.80
2023-08-22T09:49:25.886Z,0.98
2023-08-22T09:51:57.309Z,0.80
2023-08-22T09:54:24.881Z,0.93
2023-08-22T09:56:52.678Z,0.90
2023-08-22T09:59:21.133Z,0.65
2023-08-22T10:01:50.034Z,0.90
2023-08-22T10:04:19.951Z,0.90
2023-08-22T10:06:50.835Z,0.98
2023-08-22T10:09:19.964Z,0.90
2023-08-22T10:11:52.096Z,0.68
2023-08-22T10:14:31.237Z,0.80
2023-08-22T10:16:59.686Z,0.80
2023-08-22T10:19:28.254Z,0.90
2023-08-22T10:21:55.629Z,0.90
2023-08-22T10:24:31.200Z,0.80
2023-08-22T10:27:05.327Z,0.73
2023-08-22T10:29:37.812Z,0.90
2023-08-22T10:32:04.918Z,0.68
2023-08-22T10:34:41.798Z,0.80
2023-08-22T10:37:20.007Z,0.77
2023-08-22T10:39:49.976Z,0.80
2023-08-22T10:42:18.446Z,0.70
2023-08-22T10:44:52.935Z,0.73
2023-08-22T10:47:22.624Z,0.90
2023-08-22T10:52:33.603Z,0.73
2023-08-22T10:55:04.576Z,0.90
2023-08-22T10:57:34.066Z,0.80
2023-08-22T11:00:01.192Z,1.00
2023-08-22T11:02:33.382Z,0.90
2023-08-22T11:05:02.315Z,1.10
2023-08-22T11:07:30.747Z,0.73
2023-08-22T11:09:58.885Z,0.98
2023-08-22T11:12:28.570Z,0.90
2023-08-22T11:14:59.075Z,0.90
2023-08-22T11:17:26.914Z,0.80
2023-08-22T11:19:56.345Z,0.80
2023-08-22T11:22:23.581Z,0.90
2023-08-22T11:24:52.698Z,0.93
2023-08-22T11:27:20.668Z,1.00
2023-08-22T11:29:53.050Z,0.80
2023-08-22T11:32:32.176Z,1.08
2023-08-22T11:35:05.496Z,1.17
2023-08-22T11:37:35.410Z,0.93
2023-08-22T11:40:05.699Z,0.90
2023-08-22T11:42:35.075Z,1.02
2023-08-22T11:45:05.263Z,1.23
2023-08-22T11:50:15.131Z,1.00
2023-08-22T11:52:46.398Z,1.10
2023-08-22T11:55:17.599Z,1.40
2023-08-22T11:57:45.680Z,1.50
2023-08-22T12:00:16.702Z,1.08
2023-08-22T12:02:50.008Z,1.00
2023-08-22T12:05:36.823Z,1.05
2023-08-22T12:08:13.124Z,1.00
2023-08-22T12:10:48.378Z,0.95
2023-08-22T12:13:17.514Z,1.10
2023-08-22T12:15:45.298Z,1.02
2023-08-22T12:18:13.424Z,1.10
2023-08-22T12:20:43.058Z,1.30
2023-08-22T12:23:12.309Z,1.10
2023-08-22T12:25:41.487Z,1.30
2023-08-22T12:30:38.471Z,0.95
2023-08-22T12:33:06.803Z,0.85
2023-08-22T12:35:35.562Z,1.20
2023-08-22T12:38:04.052Z,1.48
2023-08-22T12:40:31.495Z,2.20
2023-08-22T12:43:00.564Z,1.10
2023-08-22T12:45:28.049Z,1.00
2023-08-22T12:47:55.762Z,0.90
2023-08-22T12:50:23.091Z,1.10
2023-08-22T12:52:50.426Z,0.85
2023-08-22T12:55:18.871Z,1.00
2023-08-22T12:57:46.217Z,1.10
2023-08-22T13:00:13.681Z,1.10
2023-08-22T13:02:42.473Z,1.00
2023-08-22T13:05:09.829Z,0.98
2023-08-22T13:07:37.187Z,1.10
2023-08-22T13:10:06.285Z,1.27
2023-08-22T13:12:35.869Z,1.00
2023-08-22T13:15:04.958Z,0.80
2023-08-22T13:17:32.222Z,0.80
2023-08-22T13:20:00.437Z,1.25
2023-08-22T13:22:27.767Z,1.00
2023-08-22T13:24:54.917Z,1.15
2023-08-22T13:27:22.463Z,1.13
2023-08-22T13:29:49.660Z,1.17
2023-08-22T13:32:16.899Z,0.90
2023-08-22T13:34:44.087Z,1.40
2023-08-22T13:37:11.412Z,1.20
2023-08-22T13:39:38.578Z,1.10
2023-08-22T13:42:05.745Z,1.20
2023-08-22T13:44:32.957Z,1.23
2023-08-22T13:47:00.471Z,1.00
2023-08-22T13:49:29.190Z,1.17
2023-08-22T13:51:56.430Z,1.00
2023-08-22T13:54:23.674Z,1.13
2023-08-22T13:56:51.059Z,1.00
2023-08-22T13:59:18.400Z,0.95
2023-08-22T14:01:47.880Z,1.20
2023-08-22T14:04:17.433Z,1.00
2023-08-22T14:06:44.801Z,1.27
2023-08-22T14:09:25.842Z,1.23
2023-08-22T14:11:54.556Z,1.17
2023-08-22T14:14:22.240Z,1.00
2023-08-22T14:16:50.520Z,1.38
2023-08-22T14:19:17.750Z,1.20
2023-08-22T14:21:48.267Z,1.00
2023-08-22T14:24:17.105Z,1.00
2023-08-22T14:26:44.957Z,1.20
2023-08-22T14:29:12.240Z,1.00
2023-08-22T14:31:39.595Z,1.20
2023-08-22T14:34:06.947Z,1.10
2023-08-22T14:36:34.169Z,1.20
2023-08-22T14:39:01.390Z,1.10
2023-08-22T14:41:28.956Z,1.30
2023-08-22T14:43:57.342Z,1.25
2023-08-22T14:46:24.584Z,1.17
2023-08-22T14:48:51.941Z,1.20
2023-08-22T14:51:19.968Z,1.17
2023-08-22T14:53:48.078Z,1.20
2023-08-22T14:56:15.377Z,1.10
2023-08-22T14:58:48.132Z,1.17
2023-08-22T15:01:15.962Z,1.23
2023-08-22T15:03:43.674Z,1.00
2023-08-22T15:06:11.158Z,1.33
2023-08-22T15:08:38.456Z,1.38
2023-08-22T15:11:06.876Z,1.52
2023-08-22T15:13:34.845Z,1.23
2023-08-22T15:16:02.283Z,1.15
2023-08-22T15:18:29.657Z,1.20
2023-08-22T15:20:58.231Z,1.20
2023-08-22T15:23:25.510Z,0.98
2023-08-22T15:25:56.684Z,1.30
2023-08-22T15:28:24.568Z,1.10
2023-08-22T15:30:59.149Z,1.10
2023-08-22T15:33:29.555Z,1.08
2023-08-22T15:35:59.982Z,1.40
2023-08-22T15:38:33.673Z,1.60
2023-08-22T15:41:02.573Z,1.40
2023-08-22T15:43:31.477Z,3.53
2023-08-22T15:45:58.888Z,1.55
2023-08-22T15:48:26.140Z,1.50
2023-08-22T15:50:56.353Z,1.55
2023-08-22T15:55:51.519Z,1.50
2023-08-22T15:58:18.765Z,1.30
2023-08-22T16:00:46.076Z,1.52
2023-08-22T16:03:14.093Z,1.40
2023-08-22T16:05:41.498Z,1.67
2023-08-22T16:08:08.690Z,1.50
2023-08-22T16:10:35.957Z,1.60
2023-08-22T16:13:03.246Z,1.70
2023-08-22T16:15:30.857Z,1.30
2023-08-22T16:17:59.049Z,1.73
2023-08-22T16:20:26.637Z,1.55
2023-08-22T16:22:53.864Z,1.60
2023-08-22T16:25:21.216Z,1.85
2023-08-22T16:27:48.413Z,1.70
2023-08-22T16:30:15.897Z,1.80
2023-08-22T16:32:43.132Z,1.50
2023-08-22T16:35:10.837Z,1.70
2023-08-22T16:37:38.124Z,1.50
2023-08-22T16:40:06.728Z,1.65
2023-08-22T16:42:33.904Z,1.30
2023-08-22T16:45:01.176Z,1.67
2023-08-22T16:47:28.759Z,1.80
2023-08-22T16:49:56.519Z,1.40
2023-08-22T16:52:24.032Z,2.15
2023-08-22T16:54:54.494Z,1.80
2023-08-22T16:57:22.707Z,1.48
2023-08-22T16:59:50.119Z,1.85
2023-08-22T17:02:17.421Z,1.95
2023-08-22T17:04:44.617Z,2.00
2023-08-22T17:07:11.853Z,1.70
2023-08-22T17:09:39.113Z,1.88
2023-08-22T17:12:06.429Z,2.20
2023-08-22T17:14:35.660Z,1.60
2023-08-22T17:17:02.902Z,1.77
2023-08-22T17:19:30.609Z,1.67
2023-08-22T17:21:57.665Z,1.83
2023-08-22T17:24:24.889Z,2.03
2023-08-22T17:26:52.211Z,1.63
2023-08-22T17:29:19.569Z,1.50
2023-08-22T17:31:46.754Z,1.83
2023-08-22T17:34:14.334Z,1.90
2023-08-22T17:36:41.566Z,2.10
2023-08-22T17:39:09.092Z,2.13
2023-08-22T17:41:36.333Z,2.17
2023-08-22T17:44:03.615Z,1.85
2023-08-22T17:46:31.037Z,1.83
2023-08-22T17:48:58.208Z,2.40
2023-08-22T17:51:25.481Z,1.77
2023-08-22T17:53:54.207Z,1.88
2023-08-22T17:56:21.718Z,1.98
2023-08-22T17:58:48.899Z,1.90
2023-08-22T18:01:16.286Z,1.77
2023-08-22T18:03:43.617Z,1.88
2023-08-22T18:06:11.063Z,1.80
2023-08-22T18:08:38.195Z,1.83
2023-08-22T18:11:05.466Z,2.08
2023-08-22T18:13:32.662Z,1.90
2023-08-22T18:16:10.261Z,1.63
2023-08-22T18:18:41.053Z,1.95
2023-08-22T18:21:11.235Z,2.10
2023-08-22T18:23:39.608Z,1.80
2023-08-22T18:26:12.241Z,1.80
2023-08-22T18:28:40.380Z,2.05
2023-08-22T18:31:11.631Z,1.90
2023-08-22T18:33:39.520Z,2.10
2023-08-22T18:36:17.541Z,1.80
2023-08-22T18:38:45.162Z,1.90
2023-08-22T18:41:12.428Z,2.28
2023-08-22T18:43:39.648Z,2.30
2023-08-22T18:46:06.825Z,2.03
2023-08-22T18:48:34.099Z,2.33
2023-08-22T18:51:04.433Z,2.28
2023-08-22T18:55:58.830Z,2.17
2023-08-22T18:58:30.996Z,2.50
2023-08-22T19:00:59.367Z,1.83
2023-08-22T19:03:26.881Z,1.83
2023-08-22T19:05:54.651Z,2.20
2023-08-22T19:08:21.998Z,1.70
2023-08-22T19:10:50.564Z,1.92
2023-08-22T19:13:17.818Z,2.22
2023-08-22T19:15:48.574Z,2.10
2023-08-22T19:18:16.119Z,1.85
2023-08-22T19:20:46.382Z,1.70
2023-08-22T19:23:16.129Z,2.10
2023-08-22T19:25:43.660Z,1.90
2023-08-22T19:28:12.225Z,2.10
2023-08-22T19:30:39.411Z,1.83
2023-08-22T19:33:17.598Z,3.20
2023-08-22T19:35:46.021Z,2.45
2023-08-22T19:38:13.564Z,3.00
2023-08-22T19:40:46.400Z,3.55
2023-08-22T19:43:17.836Z,3.50
2023-08-22T19:45:45.990Z,4.10
2023-08-22T19:48:13.528Z,4.43
2023-08-22T19:50:40.813Z,3.63
2023-08-22T19:53:08.070Z,3.58
2023-08-22T19:55:35.335Z,3.58
2023-08-22T19:58:02.599Z,3.50
2023-08-22T20:00:29.887Z,3.25
2023-08-22T20:02:57.180Z,3.60
2023-08-22T20:05:24.635Z,3.50
2023-08-22T20:07:54.176Z,2.80
2023-08-22T20:10:22.468Z,2.72
2023-08-22T20:12:50.198Z,2.50
2023-08-22T20:15:18.144Z,2.40
2023-08-22T20:17:46.363Z,2.50
2023-08-22T20:20:14.071Z,2.90
2023-08-22T20:22:41.480Z,2.20
2023-08-22T20:25:09.062Z,2.40
2023-08-22T20:27:36.372Z,2.58
2023-08-22T20:30:03.810Z,2.25
2023-08-22T20:32:31.258Z,2.58
2023-08-22T20:34:58.398Z,2.80
2023-08-22T20:37:25.539Z,2.40
2023-08-22T20:39:52.721Z,2.40
2023-08-22T20:42:19.918Z,2.75
2023-08-22T20:44:47.131Z,2.78
2023-08-22T20:47:14.249Z,2.88
2023-08-22T20:49:41.809Z,2.88
2023-08-22T20:52:09.017Z,2.72
2023-08-22T20:54:36.264Z,3.80
2023-08-22T20:57:03.451Z,3.97
2023-08-22T20:59:30.709Z,5.20
2023-08-22T21:01:57.802Z,4.90
2023-08-22T21:04:25.047Z,4.15
2023-08-22T21:06:52.249Z,4.07
2023-08-22T21:09:19.626Z,2.95
2023-08-22T21:11:46.733Z,3.30
2023-08-22T21:14:13.936Z,2.95
2023-08-22T21:16:41.180Z,2.90
2023-08-22T21:19:08.290Z,2.80
2023-08-22T21:21:35.465Z,2.72
2023-08-22T21:24:02.656Z,2.65
2023-08-22T21:26:30.069Z,2.90
2023-08-22T21:28:57.298Z,2.83
2023-08-22T21:31:24.529Z,2.78
2023-08-22T21:33:51.871Z,2.38
2023-08-22T21:36:18.980Z,2.53
2023-08-22T21:38:51.917Z,2.30
2023-08-22T21:41:19.694Z,2.50
2023-08-22T21:43:46.789Z,2.70
2023-08-22T21:46:14.617Z,2.90
2023-08-22T21:48:41.806Z,2.65
2023-08-22T21:51:08.890Z,3.08
2023-08-22T21:53:36.083Z,2.50
2023-08-22T21:56:03.172Z,3.03
2023-08-22T21:58:30.278Z,2.42
2023-08-22T22:01:08.812Z,2.72
2023-08-22T22:03:36.794Z,2.15
2023-08-22T22:06:04.136Z,2.65
2023-08-22T22:08:31.321Z,2.80
2023-08-22T22:10:58.444Z,2.25
2023-08-22T22:13:25.827Z,2.20
2023-08-22T22:15:55.091Z,2.50
2023-08-22T22:18:23.906Z,2.60
2023-08-22T22:20:57.931Z,2.60
2023-08-22T22:23:25.483Z,2.92
2023-08-22T22:26:03.013Z,2.70
2023-08-22T22:28:31.293Z,3.58
2023-08-22T22:30:58.839Z,3.50
2023-08-22T22:33:26.335Z,3.30
2023-08-22T22:35:53.606Z,3.17
2023-08-22T22:38:20.975Z,3.00
2023-08-22T22:40:48.264Z,3.60
2023-08-22T22:43:15.384Z,3.53
2023-08-22T22:45:42.547Z,3.38
2023-08-22T22:48:09.911Z,3.20
2023-08-22T22:50:40.975Z,3.45
2023-08-22T22:53:08.091Z,3.10
2023-08-22T22:55:35.312Z,3.35
2023-08-22T22:58:02.494Z,3.00
2023-08-22T23:00:30.028Z,3.10
2023-08-22T23:02:58.507Z,2.75
2023-08-22T23:05:27.121Z,3.38
2023-08-22T23:07:55.245Z,3.40
2023-08-22T23:10:22.810Z,2.90
2023-08-22T23:12:50.619Z,3.60
2023-08-22T23:15:17.853Z,3.33
2023-08-22T23:17:48.228Z,3.30
2023-08-22T23:20:18.636Z,2.88
2023-08-22T23:22:47.655Z,2.90
2023-08-22T23:25:15.467Z,3.08
2023-08-22T23:27:43.504Z,3.85
2023-08-22T23:30:13.043Z,3.30
2023-08-22T23:32:40.211Z,3.03
2023-08-22T23:35:08.991Z,3.47
2023-08-22T23:37:36.431Z,3.03
2023-08-22T23:40:21.458Z,3.25
2023-08-22T23:42:50.676Z,3.03
2023-08-22T23:45:18.306Z,3.03
2023-08-22T23:47:45.675Z,2.88
2023-08-22T23:50:13.358Z,3.25
2023-08-22T23:52:40.516Z,2.65
2023-08-22T23:55:09.134Z,2.80
2023-08-22T23:57:37.033Z,2.60
